sensor_id;sensor_type;location;lat;lon;timestamp;P1;durP1;ratioP1;P2;durP2;ratioP2
74469;SDS011;62918;55.706;37.816;2023-04-24T00:00:04;32.35;;;11.15;;
74469;SDS011;62918;55.706;37.816;2023-04-24T00:00:37;26.83;;;10.70;;
74469;SDS011;62918;55.706;37.816;2023-04-24T00:01:10;30.80;;;10.45;;
74469;SDS011;62918;55.706;37.816;2023-04-24T00:01:43;26.20;;;11.05;;
74469;SDS011;62918;55.706;37.816;2023-04-24T00:02:13;24.63;;;10.65;;
74469;SDS011;62918;55.706;37.816;2023-04-24T00:02:44;23.65;;;10.00;;
74469;SDS011;62918;55.706;37.816;2023-04-24T00:03:18;29.58;;;10.45;;
74469;SDS011;62918;55.706;37.816;2023-04-24T00:03:51;29.52;;;10.45;;
74469;SDS011;62918;55.706;37.816;2023-04-24T00:04:21;26.33;;;11.10;;
74469;SDS011;62918;55.706;37.816;2023-04-24T00:04:56;21.13;;;9.77;;
74469;SDS011;62918;55.706;37.816;2023-04-24T00:05:26;34.75;;;9.93;;
74469;SDS011;62918;55.706;37.816;2023-04-24T00:05:57;21.83;;;9.70;;
74469;SDS011;62918;55.706;37.816;2023-04-24T00:06:29;27.60;;;10.43;;
74469;SDS011;62918;55.706;37.816;2023-04-24T00:07:03;22.48;;;10.52;;
74469;SDS011;62918;55.706;37.816;2023-04-24T00:07:34;24.20;;;10.25;;
74469;SDS011;62918;55.706;37.816;2023-04-24T00:08:05;32.38;;;10.93;;
74469;SDS011;62918;55.706;37.816;2023-04-24T00:08:36;33.22;;;10.50;;
74469;SDS011;62918;55.706;37.816;2023-04-24T00:09:06;19.02;;;9.48;;
74469;SDS011;62918;55.706;37.816;2023-04-24T00:09:37;22.50;;;10.93;;
74469;SDS011;62918;55.706;37.816;2023-04-24T00:10:08;24.77;;;10.82;;
74469;SDS011;62918;55.706;37.816;2023-04-24T00:10:39;20.50;;;10.50;;
74469;SDS011;62918;55.706;37.816;2023-04-24T00:11:09;26.20;;;11.55;;
74469;SDS011;62918;55.706;37.816;2023-04-24T00:11:40;29.33;;;11.15;;
74469;SDS011;62918;55.706;37.816;2023-04-24T00:12:11;25.63;;;11.90;;
74469;SDS011;62918;55.706;37.816;2023-04-24T00:12:41;26.83;;;10.55;;
74469;SDS011;62918;55.706;37.816;2023-04-24T00:13:12;26.08;;;11.27;;
74469;SDS011;62918;55.706;37.816;2023-04-24T00:13:43;27.10;;;10.23;;
74469;SDS011;62918;55.706;37.816;2023-04-24T00:14:13;28.98;;;10.57;;
74469;SDS011;62918;55.706;37.816;2023-04-24T00:14:44;31.25;;;11.48;;
74469;SDS011;62918;55.706;37.816;2023-04-24T00:15:14;22.90;;;10.30;;
74469;SDS011;62918;55.706;37.816;2023-04-24T00:15:45;23.48;;;10.00;;
74469;SDS011;62918;55.706;37.816;2023-04-24T00:16:16;30.63;;;10.75;;
74469;SDS011;62918;55.706;37.816;2023-04-24T00:16:46;25.10;;;10.27;;
74469;SDS011;62918;55.706;37.816;2023-04-24T00:17:17;30.35;;;10.30;;
74469;SDS011;62918;55.706;37.816;2023-04-24T00:17:51;25.75;;;9.80;;
74469;SDS011;62918;55.706;37.816;2023-04-24T00:18:23;30.10;;;10.68;;
74469;SDS011;62918;55.706;37.816;2023-04-24T00:18:54;26.58;;;10.82;;
74469;SDS011;62918;55.706;37.816;2023-04-24T00:19:25;26.83;;;9.85;;
74469;SDS011;62918;55.706;37.816;2023-04-24T00:19:55;22.58;;;10.18;;
74469;SDS011;62918;55.706;37.816;2023-04-24T00:20:28;27.27;;;9.95;;
74469;SDS011;62918;55.706;37.816;2023-04-24T00:21:17;23.05;;;10.30;;
74469;SDS011;62918;55.706;37.816;2023-04-24T00:21:48;24.58;;;9.63;;
74469;SDS011;62918;55.706;37.816;2023-04-24T00:22:21;28.65;;;9.93;;
74469;SDS011;62918;55.706;37.816;2023-04-24T00:22:52;28.75;;;9.70;;
74469;SDS011;62918;55.706;37.816;2023-04-24T00:23:22;29.45;;;10.68;;
74469;SDS011;62918;55.706;37.816;2023-04-24T00:23:53;22.88;;;9.60;;
74469;SDS011;62918;55.706;37.816;2023-04-24T00:24:24;27.02;;;10.18;;
74469;SDS011;62918;55.706;37.816;2023-04-24T00:24:54;23.23;;;9.90;;
74469;SDS011;62918;55.706;37.816;2023-04-24T00:25:25;28.27;;;10.15;;
74469;SDS011;62918;55.706;37.816;2023-04-24T00:25:56;25.00;;;9.73;;
74469;SDS011;62918;55.706;37.816;2023-04-24T00:26:26;25.90;;;10.18;;
74469;SDS011;62918;55.706;37.816;2023-04-24T00:26:57;25.25;;;10.15;;
74469;SDS011;62918;55.706;37.816;2023-04-24T00:27:28;28.02;;;10.77;;
74469;SDS011;62918;55.706;37.816;2023-04-24T00:27:58;25.27;;;10.23;;
74469;SDS011;62918;55.706;37.816;2023-04-24T00:28:29;30.80;;;10.15;;
74469;SDS011;62918;55.706;37.816;2023-04-24T00:28:59;25.85;;;10.30;;
74469;SDS011;62918;55.706;37.816;2023-04-24T00:29:30;28.30;;;9.90;;
74469;SDS011;62918;55.706;37.816;2023-04-24T00:30:01;22.48;;;9.55;;
74469;SDS011;62918;55.706;37.816;2023-04-24T00:30:32;31.00;;;10.23;;
74469;SDS011;62918;55.706;37.816;2023-04-24T00:31:02;29.10;;;10.50;;
74469;SDS011;62918;55.706;37.816;2023-04-24T00:31:33;25.42;;;9.60;;
74469;SDS011;62918;55.706;37.816;2023-04-24T00:32:06;26.98;;;9.82;;
74469;SDS011;62918;55.706;37.816;2023-04-24T00:32:37;25.67;;;9.80;;
74469;SDS011;62918;55.706;37.816;2023-04-24T00:33:08;29.13;;;10.38;;
74469;SDS011;62918;55.706;37.816;2023-04-24T00:33:38;23.20;;;10.85;;
74469;SDS011;62918;55.706;37.816;2023-04-24T00:34:10;21.20;;;9.25;;
74469;SDS011;62918;55.706;37.816;2023-04-24T00:34:41;25.45;;;9.98;;
74469;SDS011;62918;55.706;37.816;2023-04-24T00:35:12;30.05;;;10.63;;
74469;SDS011;62918;55.706;37.816;2023-04-24T00:35:43;30.55;;;9.70;;
74469;SDS011;62918;55.706;37.816;2023-04-24T00:36:13;28.10;;;9.80;;
74469;SDS011;62918;55.706;37.816;2023-04-24T00:36:45;28.95;;;10.73;;
74469;SDS011;62918;55.706;37.816;2023-04-24T00:37:16;24.25;;;9.77;;
74469;SDS011;62918;55.706;37.816;2023-04-24T00:37:46;31.55;;;10.02;;
74469;SDS011;62918;55.706;37.816;2023-04-24T00:38:17;25.08;;;10.10;;
74469;SDS011;62918;55.706;37.816;2023-04-24T00:38:48;25.83;;;9.60;;
74469;SDS011;62918;55.706;37.816;2023-04-24T00:39:19;25.10;;;9.73;;
74469;SDS011;62918;55.706;37.816;2023-04-24T00:39:49;31.77;;;10.30;;
74469;SDS011;62918;55.706;37.816;2023-04-24T00:40:20;22.75;;;9.25;;
74469;SDS011;62918;55.706;37.816;2023-04-24T00:40:51;26.58;;;9.80;;
74469;SDS011;62918;55.706;37.816;2023-04-24T00:41:21;22.30;;;9.50;;
74469;SDS011;62918;55.706;37.816;2023-04-24T00:41:53;27.13;;;9.93;;
74469;SDS011;62918;55.706;37.816;2023-04-24T00:42:24;27.73;;;9.73;;
74469;SDS011;62918;55.706;37.816;2023-04-24T00:42:54;23.15;;;9.70;;
74469;SDS011;62918;55.706;37.816;2023-04-24T00:43:25;28.42;;;10.20;;
74469;SDS011;62918;55.706;37.816;2023-04-24T00:43:56;26.25;;;9.63;;
74469;SDS011;62918;55.706;37.816;2023-04-24T00:44:26;25.58;;;9.85;;
74469;SDS011;62918;55.706;37.816;2023-04-24T00:44:58;25.85;;;9.48;;
74469;SDS011;62918;55.706;37.816;2023-04-24T00:45:29;28.42;;;9.30;;
74469;SDS011;62918;55.706;37.816;2023-04-24T00:46:01;31.05;;;10.25;;
74469;SDS011;62918;55.706;37.816;2023-04-24T00:46:32;26.55;;;10.70;;
74469;SDS011;62918;55.706;37.816;2023-04-24T00:47:02;24.42;;;10.30;;
74469;SDS011;62918;55.706;37.816;2023-04-24T00:47:33;30.60;;;10.38;;
74469;SDS011;62918;55.706;37.816;2023-04-24T00:48:04;25.27;;;10.65;;
74469;SDS011;62918;55.706;37.816;2023-04-24T00:48:34;28.65;;;10.52;;
74469;SDS011;62918;55.706;37.816;2023-04-24T00:49:05;24.45;;;10.35;;
74469;SDS011;62918;55.706;37.816;2023-04-24T00:49:36;26.38;;;9.52;;
74469;SDS011;62918;55.706;37.816;2023-04-24T00:50:07;23.60;;;9.98;;
74469;SDS011;62918;55.706;37.816;2023-04-24T00:50:38;27.27;;;10.07;;
74469;SDS011;62918;55.706;37.816;2023-04-24T00:51:09;25.55;;;10.05;;
74469;SDS011;62918;55.706;37.816;2023-04-24T00:51:40;28.20;;;9.18;;
74469;SDS011;62918;55.706;37.816;2023-04-24T00:52:15;26.15;;;9.82;;
74469;SDS011;62918;55.706;37.816;2023-04-24T00:52:48;25.08;;;9.93;;
74469;SDS011;62918;55.706;37.816;2023-04-24T00:53:19;25.58;;;9.63;;
74469;SDS011;62918;55.706;37.816;2023-04-24T00:53:50;28.48;;;11.13;;
74469;SDS011;62918;55.706;37.816;2023-04-24T00:54:22;30.70;;;9.93;;
74469;SDS011;62918;55.706;37.816;2023-04-24T00:54:52;27.35;;;9.90;;
74469;SDS011;62918;55.706;37.816;2023-04-24T00:55:23;26.27;;;10.40;;
74469;SDS011;62918;55.706;37.816;2023-04-24T00:55:55;25.48;;;10.23;;
74469;SDS011;62918;55.706;37.816;2023-04-24T00:56:26;24.88;;;10.82;;
74469;SDS011;62918;55.706;37.816;2023-04-24T00:56:58;27.33;;;10.18;;
74469;SDS011;62918;55.706;37.816;2023-04-24T00:57:28;25.88;;;9.32;;
74469;SDS011;62918;55.706;37.816;2023-04-24T00:57:59;27.13;;;9.98;;
74469;SDS011;62918;55.706;37.816;2023-04-24T00:58:29;24.13;;;10.52;;
74469;SDS011;62918;55.706;37.816;2023-04-24T00:59:01;26.73;;;10.45;;
74469;SDS011;62918;55.706;37.816;2023-04-24T00:59:32;33.38;;;10.68;;
74469;SDS011;62918;55.706;37.816;2023-04-24T01:00:03;27.05;;;10.13;;
74469;SDS011;62918;55.706;37.816;2023-04-24T01:00:35;31.05;;;10.52;;
74469;SDS011;62918;55.706;37.816;2023-04-24T01:01:07;27.40;;;9.63;;
74469;SDS011;62918;55.706;37.816;2023-04-24T01:01:39;26.70;;;10.10;;
74469;SDS011;62918;55.706;37.816;2023-04-24T01:02:13;22.35;;;9.90;;
74469;SDS011;62918;55.706;37.816;2023-04-24T01:02:44;24.23;;;10.82;;
74469;SDS011;62918;55.706;37.816;2023-04-24T01:03:16;39.63;;;11.55;;
74469;SDS011;62918;55.706;37.816;2023-04-24T01:03:49;32.00;;;10.80;;
74469;SDS011;62918;55.706;37.816;2023-04-24T01:04:20;32.75;;;9.98;;
74469;SDS011;62918;55.706;37.816;2023-04-24T01:04:51;27.92;;;10.60;;
74469;SDS011;62918;55.706;37.816;2023-04-24T01:05:22;28.70;;;9.98;;
74469;SDS011;62918;55.706;37.816;2023-04-24T01:05:53;27.80;;;10.20;;
74469;SDS011;62918;55.706;37.816;2023-04-24T01:06:27;25.30;;;10.30;;
74469;SDS011;62918;55.706;37.816;2023-04-24T01:06:59;27.83;;;10.73;;
74469;SDS011;62918;55.706;37.816;2023-04-24T01:07:30;31.85;;;10.35;;
74469;SDS011;62918;55.706;37.816;2023-04-24T01:08:01;28.52;;;10.15;;
74469;SDS011;62918;55.706;37.816;2023-04-24T01:08:33;29.63;;;10.43;;
74469;SDS011;62918;55.706;37.816;2023-04-24T01:09:06;23.67;;;9.43;;
74469;SDS011;62918;55.706;37.816;2023-04-24T01:09:40;25.30;;;10.45;;
74469;SDS011;62918;55.706;37.816;2023-04-24T01:10:15;24.98;;;10.43;;
74469;SDS011;62918;55.706;37.816;2023-04-24T01:10:47;23.63;;;10.13;;
74469;SDS011;62918;55.706;37.816;2023-04-24T01:11:18;28.80;;;10.57;;
74469;SDS011;62918;55.706;37.816;2023-04-24T01:11:51;27.23;;;10.32;;
74469;SDS011;62918;55.706;37.816;2023-04-24T01:12:21;27.67;;;11.02;;
74469;SDS011;62918;55.706;37.816;2023-04-24T01:12:52;22.90;;;10.30;;
74469;SDS011;62918;55.706;37.816;2023-04-24T01:13:23;23.85;;;10.13;;
74469;SDS011;62918;55.706;37.816;2023-04-24T01:13:54;30.30;;;10.20;;
74469;SDS011;62918;55.706;37.816;2023-04-24T01:14:25;25.20;;;10.98;;
74469;SDS011;62918;55.706;37.816;2023-04-24T01:14:55;27.90;;;10.13;;
74469;SDS011;62918;55.706;37.816;2023-04-24T01:15:26;25.02;;;10.23;;
74469;SDS011;62918;55.706;37.816;2023-04-24T01:15:57;26.42;;;10.02;;
74469;SDS011;62918;55.706;37.816;2023-04-24T01:16:28;23.58;;;10.65;;
74469;SDS011;62918;55.706;37.816;2023-04-24T01:16:59;22.67;;;10.07;;
74469;SDS011;62918;55.706;37.816;2023-04-24T01:17:30;21.50;;;10.38;;
74469;SDS011;62918;55.706;37.816;2023-04-24T01:18:01;28.60;;;10.07;;
74469;SDS011;62918;55.706;37.816;2023-04-24T01:18:32;28.88;;;10.40;;
74469;SDS011;62918;55.706;37.816;2023-04-24T01:19:04;23.23;;;10.43;;
74469;SDS011;62918;55.706;37.816;2023-04-24T01:19:37;22.98;;;10.02;;
74469;SDS011;62918;55.706;37.816;2023-04-24T01:20:08;30.88;;;10.40;;
74469;SDS011;62918;55.706;37.816;2023-04-24T01:20:41;20.75;;;9.82;;
74469;SDS011;62918;55.706;37.816;2023-04-24T01:21:15;20.98;;;10.45;;
74469;SDS011;62918;55.706;37.816;2023-04-24T01:21:46;28.23;;;10.77;;
74469;SDS011;62918;55.706;37.816;2023-04-24T01:22:17;27.77;;;10.05;;
74469;SDS011;62918;55.706;37.816;2023-04-24T01:22:48;23.98;;;10.02;;
74469;SDS011;62918;55.706;37.816;2023-04-24T01:23:19;22.75;;;9.93;;
74469;SDS011;62918;55.706;37.816;2023-04-24T01:23:49;28.20;;;9.40;;
74469;SDS011;62918;55.706;37.816;2023-04-24T01:24:21;22.50;;;10.27;;
74469;SDS011;62918;55.706;37.816;2023-04-24T01:24:52;28.05;;;10.63;;
74469;SDS011;62918;55.706;37.816;2023-04-24T01:25:24;22.23;;;9.82;;
74469;SDS011;62918;55.706;37.816;2023-04-24T01:25:56;23.08;;;9.98;;
74469;SDS011;62918;55.706;37.816;2023-04-24T01:26:27;24.45;;;9.88;;
74469;SDS011;62918;55.706;37.816;2023-04-24T01:26:57;22.30;;;10.27;;
74469;SDS011;62918;55.706;37.816;2023-04-24T01:27:28;25.85;;;9.77;;
74469;SDS011;62918;55.706;37.816;2023-04-24T01:27:59;32.70;;;10.38;;
74469;SDS011;62918;55.706;37.816;2023-04-24T01:28:29;27.63;;;10.50;;
74469;SDS011;62918;55.706;37.816;2023-04-24T01:29:01;28.63;;;10.77;;
74469;SDS011;62918;55.706;37.816;2023-04-24T01:29:31;25.45;;;10.43;;
74469;SDS011;62918;55.706;37.816;2023-04-24T01:30:02;24.70;;;10.57;;
74469;SDS011;62918;55.706;37.816;2023-04-24T01:30:36;22.23;;;10.13;;
74469;SDS011;62918;55.706;37.816;2023-04-24T01:31:06;26.25;;;10.10;;
74469;SDS011;62918;55.706;37.816;2023-04-24T01:31:37;28.60;;;10.98;;
74469;SDS011;62918;55.706;37.816;2023-04-24T01:32:09;23.48;;;9.48;;
74469;SDS011;62918;55.706;37.816;2023-04-24T01:32:40;21.45;;;9.80;;
74469;SDS011;62918;55.706;37.816;2023-04-24T01:33:14;24.40;;;9.27;;
74469;SDS011;62918;55.706;37.816;2023-04-24T01:33:45;27.08;;;10.25;;
74469;SDS011;62918;55.706;37.816;2023-04-24T01:34:17;26.92;;;9.98;;
74469;SDS011;62918;55.706;37.816;2023-04-24T01:34:47;27.77;;;10.05;;
74469;SDS011;62918;55.706;37.816;2023-04-24T01:35:19;22.75;;;9.98;;
74469;SDS011;62918;55.706;37.816;2023-04-24T01:35:50;27.20;;;10.80;;
74469;SDS011;62918;55.706;37.816;2023-04-24T01:36:21;27.88;;;10.40;;
74469;SDS011;62918;55.706;37.816;2023-04-24T01:36:52;22.38;;;9.35;;
74469;SDS011;62918;55.706;37.816;2023-04-24T01:37:23;27.02;;;11.10;;
74469;SDS011;62918;55.706;37.816;2023-04-24T01:37:54;23.55;;;10.20;;
74469;SDS011;62918;55.706;37.816;2023-04-24T01:38:24;24.90;;;10.38;;
74469;SDS011;62918;55.706;37.816;2023-04-24T01:38:55;24.65;;;10.60;;
74469;SDS011;62918;55.706;37.816;2023-04-24T01:39:26;27.40;;;10.73;;
74469;SDS011;62918;55.706;37.816;2023-04-24T01:39:58;33.85;;;10.70;;
74469;SDS011;62918;55.706;37.816;2023-04-24T01:40:30;24.83;;;11.07;;
74469;SDS011;62918;55.706;37.816;2023-04-24T01:41:00;28.88;;;10.30;;
74469;SDS011;62918;55.706;37.816;2023-04-24T01:41:31;28.70;;;9.88;;
74469;SDS011;62918;55.706;37.816;2023-04-24T01:42:02;28.67;;;10.18;;
74469;SDS011;62918;55.706;37.816;2023-04-24T01:42:34;22.58;;;9.45;;
74469;SDS011;62918;55.706;37.816;2023-04-24T01:43:05;23.48;;;10.75;;
74469;SDS011;62918;55.706;37.816;2023-04-24T01:43:36;25.27;;;10.85;;
74469;SDS011;62918;55.706;37.816;2023-04-24T01:44:07;29.10;;;11.07;;
74469;SDS011;62918;55.706;37.816;2023-04-24T01:44:37;29.17;;;9.88;;
74469;SDS011;62918;55.706;37.816;2023-04-24T01:45:10;33.35;;;10.45;;
74469;SDS011;62918;55.706;37.816;2023-04-24T01:45:43;28.08;;;10.80;;
74469;SDS011;62918;55.706;37.816;2023-04-24T01:46:16;21.88;;;10.20;;
74469;SDS011;62918;55.706;37.816;2023-04-24T01:46:47;23.88;;;9.98;;
74469;SDS011;62918;55.706;37.816;2023-04-24T01:47:18;24.20;;;10.27;;
74469;SDS011;62918;55.706;37.816;2023-04-24T01:47:49;28.58;;;10.38;;
74469;SDS011;62918;55.706;37.816;2023-04-24T01:48:19;24.73;;;9.95;;
74469;SDS011;62918;55.706;37.816;2023-04-24T01:48:51;30.30;;;10.93;;
74469;SDS011;62918;55.706;37.816;2023-04-24T01:49:22;24.48;;;9.75;;
74469;SDS011;62918;55.706;37.816;2023-04-24T01:49:53;29.30;;;10.32;;
74469;SDS011;62918;55.706;37.816;2023-04-24T01:50:23;28.02;;;10.73;;
74469;SDS011;62918;55.706;37.816;2023-04-24T01:50:54;30.23;;;10.40;;
74469;SDS011;62918;55.706;37.816;2023-04-24T01:51:25;25.63;;;10.25;;
74469;SDS011;62918;55.706;37.816;2023-04-24T01:52:00;24.70;;;10.65;;
74469;SDS011;62918;55.706;37.816;2023-04-24T01:52:31;29.27;;;10.02;;
74469;SDS011;62918;55.706;37.816;2023-04-24T01:53:03;32.10;;;11.13;;
74469;SDS011;62918;55.706;37.816;2023-04-24T01:53:34;23.77;;;11.18;;
74469;SDS011;62918;55.706;37.816;2023-04-24T01:54:05;28.13;;;11.32;;
74469;SDS011;62918;55.706;37.816;2023-04-24T01:54:36;21.75;;;11.02;;
74469;SDS011;62918;55.706;37.816;2023-04-24T01:55:06;26.10;;;10.25;;
74469;SDS011;62918;55.706;37.816;2023-04-24T01:55:38;33.95;;;11.38;;
74469;SDS011;62918;55.706;37.816;2023-04-24T01:56:08;26.83;;;10.40;;
74469;SDS011;62918;55.706;37.816;2023-04-24T01:56:40;27.60;;;10.95;;
74469;SDS011;62918;55.706;37.816;2023-04-24T01:57:14;25.00;;;9.80;;
74469;SDS011;62918;55.706;37.816;2023-04-24T01:57:46;31.08;;;10.75;;
74469;SDS011;62918;55.706;37.816;2023-04-24T01:58:17;23.05;;;9.95;;
74469;SDS011;62918;55.706;37.816;2023-04-24T01:58:48;25.92;;;10.43;;
74469;SDS011;62918;55.706;37.816;2023-04-24T01:59:20;27.13;;;10.95;;
74469;SDS011;62918;55.706;37.816;2023-04-24T01:59:51;23.08;;;10.93;;
74469;SDS011;62918;55.706;37.816;2023-04-24T02:00:22;26.08;;;9.98;;
74469;SDS011;62918;55.706;37.816;2023-04-24T02:00:56;31.17;;;11.27;;
74469;SDS011;62918;55.706;37.816;2023-04-24T02:01:32;26.52;;;11.52;;
74469;SDS011;62918;55.706;37.816;2023-04-24T02:02:06;28.67;;;10.43;;
74469;SDS011;62918;55.706;37.816;2023-04-24T02:02:36;22.95;;;10.52;;
74469;SDS011;62918;55.706;37.816;2023-04-24T02:03:39;26.33;;;10.20;;
74469;SDS011;62918;55.706;37.816;2023-04-24T02:04:10;20.17;;;9.70;;
74469;SDS011;62918;55.706;37.816;2023-04-24T02:04:40;22.70;;;10.00;;
74469;SDS011;62918;55.706;37.816;2023-04-24T02:05:11;28.15;;;10.77;;
74469;SDS011;62918;55.706;37.816;2023-04-24T02:05:43;23.45;;;10.10;;
74469;SDS011;62918;55.706;37.816;2023-04-24T02:06:15;29.05;;;10.38;;
74469;SDS011;62918;55.706;37.816;2023-04-24T02:06:46;25.33;;;10.73;;
74469;SDS011;62918;55.706;37.816;2023-04-24T02:07:16;26.85;;;10.65;;
74469;SDS011;62918;55.706;37.816;2023-04-24T02:07:47;30.08;;;10.13;;
74469;SDS011;62918;55.706;37.816;2023-04-24T02:08:17;23.13;;;10.30;;
74469;SDS011;62918;55.706;37.816;2023-04-24T02:08:48;33.25;;;11.05;;
74469;SDS011;62918;55.706;37.816;2023-04-24T02:09:19;30.23;;;10.70;;
74469;SDS011;62918;55.706;37.816;2023-04-24T02:09:50;26.98;;;11.30;;
74469;SDS011;62918;55.706;37.816;2023-04-24T02:10:20;24.73;;;9.73;;
74469;SDS011;62918;55.706;37.816;2023-04-24T02:10:51;29.42;;;11.70;;
74469;SDS011;62918;55.706;37.816;2023-04-24T02:11:21;25.83;;;10.23;;
74469;SDS011;62918;55.706;37.816;2023-04-24T02:11:52;24.77;;;11.05;;
74469;SDS011;62918;55.706;37.816;2023-04-24T02:12:23;28.80;;;10.80;;
74469;SDS011;62918;55.706;37.816;2023-04-24T02:12:53;30.30;;;11.07;;
74469;SDS011;62918;55.706;37.816;2023-04-24T02:13:24;24.05;;;10.10;;
74469;SDS011;62918;55.706;37.816;2023-04-24T02:13:54;27.77;;;10.88;;
74469;SDS011;62918;55.706;37.816;2023-04-24T02:14:25;27.92;;;10.73;;
74469;SDS011;62918;55.706;37.816;2023-04-24T02:14:56;29.45;;;11.25;;
74469;SDS011;62918;55.706;37.816;2023-04-24T02:15:27;24.33;;;10.38;;
74469;SDS011;62918;55.706;37.816;2023-04-24T02:15:58;29.92;;;9.85;;
74469;SDS011;62918;55.706;37.816;2023-04-24T02:16:48;30.23;;;10.70;;
74469;SDS011;62918;55.706;37.816;2023-04-24T02:17:19;30.67;;;10.05;;
74469;SDS011;62918;55.706;37.816;2023-04-24T02:17:50;28.92;;;10.85;;
74469;SDS011;62918;55.706;37.816;2023-04-24T02:18:20;27.58;;;11.32;;
74469;SDS011;62918;55.706;37.816;2023-04-24T02:18:52;27.63;;;11.82;;
74469;SDS011;62918;55.706;37.816;2023-04-24T02:19:23;24.33;;;11.32;;
74469;SDS011;62918;55.706;37.816;2023-04-24T02:19:53;30.20;;;11.68;;
74469;SDS011;62918;55.706;37.816;2023-04-24T02:20:24;33.35;;;11.52;;
74469;SDS011;62918;55.706;37.816;2023-04-24T02:20:55;25.98;;;11.07;;
74469;SDS011;62918;55.706;37.816;2023-04-24T02:21:26;25.80;;;11.27;;
74469;SDS011;62918;55.706;37.816;2023-04-24T02:21:57;33.10;;;11.40;;
74469;SDS011;62918;55.706;37.816;2023-04-24T02:22:27;38.05;;;11.00;;
74469;SDS011;62918;55.706;37.816;2023-04-24T02:22:58;35.28;;;11.70;;
74469;SDS011;62918;55.706;37.816;2023-04-24T02:23:29;34.75;;;11.68;;
74469;SDS011;62918;55.706;37.816;2023-04-24T02:23:59;33.03;;;11.25;;
74469;SDS011;62918;55.706;37.816;2023-04-24T02:24:30;33.42;;;11.73;;
74469;SDS011;62918;55.706;37.816;2023-04-24T02:25:01;29.15;;;11.40;;
74469;SDS011;62918;55.706;37.816;2023-04-24T02:25:36;31.63;;;10.55;;
74469;SDS011;62918;55.706;37.816;2023-04-24T02:26:06;31.85;;;10.73;;
74469;SDS011;62918;55.706;37.816;2023-04-24T02:26:37;36.60;;;11.13;;
74469;SDS011;62918;55.706;37.816;2023-04-24T02:27:08;26.48;;;10.95;;
74469;SDS011;62918;55.706;37.816;2023-04-24T02:27:38;26.33;;;11.20;;
74469;SDS011;62918;55.706;37.816;2023-04-24T02:28:09;36.03;;;11.80;;
74469;SDS011;62918;55.706;37.816;2023-04-24T02:28:39;32.80;;;11.77;;
74469;SDS011;62918;55.706;37.816;2023-04-24T02:29:10;29.52;;;11.05;;
74469;SDS011;62918;55.706;37.816;2023-04-24T02:29:41;30.65;;;11.73;;
74469;SDS011;62918;55.706;37.816;2023-04-24T02:30:11;27.80;;;10.88;;
74469;SDS011;62918;55.706;37.816;2023-04-24T02:30:42;27.83;;;10.77;;
74469;SDS011;62918;55.706;37.816;2023-04-24T02:31:13;34.47;;;11.48;;
74469;SDS011;62918;55.706;37.816;2023-04-24T02:31:43;32.72;;;12.07;;
74469;SDS011;62918;55.706;37.816;2023-04-24T02:32:14;33.92;;;11.02;;
74469;SDS011;62918;55.706;37.816;2023-04-24T02:32:45;31.20;;;11.20;;
74469;SDS011;62918;55.706;37.816;2023-04-24T02:33:16;31.90;;;12.52;;
74469;SDS011;62918;55.706;37.816;2023-04-24T02:33:47;34.10;;;10.95;;
74469;SDS011;62918;55.706;37.816;2023-04-24T02:34:17;30.55;;;11.88;;
74469;SDS011;62918;55.706;37.816;2023-04-24T02:34:48;32.35;;;11.55;;
74469;SDS011;62918;55.706;37.816;2023-04-24T02:35:19;34.92;;;12.90;;
74469;SDS011;62918;55.706;37.816;2023-04-24T02:35:50;31.15;;;11.55;;
74469;SDS011;62918;55.706;37.816;2023-04-24T02:36:20;34.88;;;11.90;;
74469;SDS011;62918;55.706;37.816;2023-04-24T02:36:51;29.38;;;11.98;;
74469;SDS011;62918;55.706;37.816;2023-04-24T02:37:23;33.05;;;11.63;;
74469;SDS011;62918;55.706;37.816;2023-04-24T02:37:54;33.92;;;10.95;;
74469;SDS011;62918;55.706;37.816;2023-04-24T02:38:25;28.33;;;11.75;;
74469;SDS011;62918;55.706;37.816;2023-04-24T02:38:55;28.58;;;11.73;;
74469;SDS011;62918;55.706;37.816;2023-04-24T02:39:26;32.15;;;11.88;;
74469;SDS011;62918;55.706;37.816;2023-04-24T02:39:57;29.67;;;12.55;;
74469;SDS011;62918;55.706;37.816;2023-04-24T02:40:27;34.67;;;12.25;;
74469;SDS011;62918;55.706;37.816;2023-04-24T02:40:58;31.77;;;11.57;;
74469;SDS011;62918;55.706;37.816;2023-04-24T02:41:30;34.80;;;12.20;;
74469;SDS011;62918;55.706;37.816;2023-04-24T02:42:02;33.42;;;12.38;;
74469;SDS011;62918;55.706;37.816;2023-04-24T02:42:33;32.63;;;11.63;;
74469;SDS011;62918;55.706;37.816;2023-04-24T02:43:03;31.23;;;12.10;;
74469;SDS011;62918;55.706;37.816;2023-04-24T02:43:34;36.03;;;12.43;;
74469;SDS011;62918;55.706;37.816;2023-04-24T02:44:05;33.75;;;12.00;;
74469;SDS011;62918;55.706;37.816;2023-04-24T02:44:35;31.88;;;12.68;;
74469;SDS011;62918;55.706;37.816;2023-04-24T02:45:06;30.13;;;11.98;;
74469;SDS011;62918;55.706;37.816;2023-04-24T02:45:37;25.77;;;11.70;;
74469;SDS011;62918;55.706;37.816;2023-04-24T02:46:08;32.35;;;12.48;;
74469;SDS011;62918;55.706;37.816;2023-04-24T02:46:39;31.33;;;12.05;;
74469;SDS011;62918;55.706;37.816;2023-04-24T02:47:11;31.52;;;12.18;;
74469;SDS011;62918;55.706;37.816;2023-04-24T02:47:42;32.58;;;12.30;;
74469;SDS011;62918;55.706;37.816;2023-04-24T02:48:12;36.20;;;12.65;;
74469;SDS011;62918;55.706;37.816;2023-04-24T02:48:43;31.20;;;11.30;;
74469;SDS011;62918;55.706;37.816;2023-04-24T02:49:13;39.38;;;12.13;;
74469;SDS011;62918;55.706;37.816;2023-04-24T02:49:44;30.27;;;12.68;;
74469;SDS011;62918;55.706;37.816;2023-04-24T02:50:15;35.28;;;12.55;;
74469;SDS011;62918;55.706;37.816;2023-04-24T02:50:46;32.17;;;12.15;;
74469;SDS011;62918;55.706;37.816;2023-04-24T02:51:16;40.75;;;12.45;;
74469;SDS011;62918;55.706;37.816;2023-04-24T02:51:47;28.98;;;11.90;;
74469;SDS011;62918;55.706;37.816;2023-04-24T02:52:18;29.55;;;11.73;;
74469;SDS011;62918;55.706;37.816;2023-04-24T02:52:48;27.42;;;11.90;;
74469;SDS011;62918;55.706;37.816;2023-04-24T02:53:19;30.98;;;11.73;;
74469;SDS011;62918;55.706;37.816;2023-04-24T02:53:49;26.83;;;11.95;;
74469;SDS011;62918;55.706;37.816;2023-04-24T02:54:20;28.27;;;13.18;;
74469;SDS011;62918;55.706;37.816;2023-04-24T02:54:50;25.33;;;11.65;;
74469;SDS011;62918;55.706;37.816;2023-04-24T02:55:21;27.27;;;11.60;;
74469;SDS011;62918;55.706;37.816;2023-04-24T02:55:51;31.30;;;11.15;;
74469;SDS011;62918;55.706;37.816;2023-04-24T02:56:22;21.48;;;10.93;;
74469;SDS011;62918;55.706;37.816;2023-04-24T02:56:53;29.15;;;11.70;;
74469;SDS011;62918;55.706;37.816;2023-04-24T02:57:23;26.02;;;11.35;;
74469;SDS011;62918;55.706;37.816;2023-04-24T02:57:54;21.90;;;11.65;;
74469;SDS011;62918;55.706;37.816;2023-04-24T02:58:25;28.17;;;11.27;;
74469;SDS011;62918;55.706;37.816;2023-04-24T02:58:55;24.15;;;11.73;;
74469;SDS011;62918;55.706;37.816;2023-04-24T02:59:26;24.08;;;11.48;;
74469;SDS011;62918;55.706;37.816;2023-04-24T02:59:58;31.80;;;11.77;;
74469;SDS011;62918;55.706;37.816;2023-04-24T03:00:29;27.77;;;11.60;;
74469;SDS011;62918;55.706;37.816;2023-04-24T03:01:00;31.83;;;11.57;;